createdAt,value
2022-08-25T00:09:50.555Z,1.87
2022-08-25T00:12:39.385Z,1.87
2022-08-25T00:15:37.214Z,1.93
2022-08-25T00:21:37.192Z,1.73
2022-08-25T00:27:25.159Z,2.00
2022-08-25T00:30:38.358Z,2.10
2022-08-25T00:37:23.781Z,1.70
2022-08-25T00:40:00.434Z,2.00
2022-08-25T00:45:47.371Z,1.60
2022-08-25T01:08:33.292Z,1.70
2022-08-25T01:14:17.670Z,1.80
2022-08-25T01:16:51.060Z,1.80
2022-08-25T01:19:45.042Z,2.00
2022-08-25T01:26:25.142Z,1.93
2022-08-25T01:41:01.280Z,1.90
2022-08-25T01:51:13.306Z,1.97
2022-08-25T02:01:00.189Z,1.90
2022-08-25T02:04:07.669Z,1.77
2022-08-25T02:45:22.525Z,1.90
2022-08-25T02:52:22.829Z,1.90
2022-08-25T03:01:53.019Z,1.70
2022-08-25T03:09:10.943Z,1.90
2022-08-25T03:30:47.023Z,2.03
2022-08-25T03:36:50.201Z,2.00
2022-08-25T03:43:22.809Z,2.00
2022-08-25T04:23:03.164Z,1.93
2022-08-25T04:25:36.862Z,2.00
2022-08-25T04:28:09.090Z,2.00
2022-08-25T04:42:47.303Z,1.90
2022-08-25T04:49:15.619Z,2.20
2022-08-25T04:51:48.008Z,2.00
2022-08-25T04:54:37.095Z,2.10
2022-08-25T05:00:14.267Z,2.07
2022-08-25T05:02:45.071Z,2.10
2022-08-25T05:05:17.670Z,2.13
2022-08-25T05:07:51.873Z,2.20
2022-08-25T05:10:23.328Z,1.90
2022-08-25T05:12:58.553Z,2.00
2022-08-25T05:15:46.090Z,2.10
2022-08-25T05:45:26.862Z,2.17
2022-08-25T05:48:02.836Z,1.90
2022-08-25T05:56:38.790Z,1.80
2022-08-25T06:15:28.004Z,1.97
2022-08-25T06:18:00.699Z,2.00
2022-08-25T06:20:29.570Z,1.47
2022-08-25T06:22:56.375Z,1.70
2022-08-25T06:25:24.518Z,1.60
2022-08-25T06:27:51.226Z,1.63
2022-08-25T06:30:24.345Z,1.57
2022-08-25T06:32:52.484Z,1.60
2022-08-25T06:35:19.603Z,1.60
2022-08-25T06:37:46.554Z,1.60
2022-08-25T06:40:13.687Z,1.57
2022-08-25T06:42:40.431Z,1.40
2022-08-25T06:45:07.430Z,1.30
2022-08-25T06:47:57.429Z,1.30
2022-08-25T06:56:52.815Z,1.30
2022-08-25T07:00:05.397Z,1.13
2022-08-25T07:02:38.748Z,1.17
2022-08-25T07:05:13.208Z,1.13
2022-08-25T07:07:47.220Z,1.07
2022-08-25T07:10:34.030Z,1.10
2022-08-25T07:13:14.754Z,1.00
2022-08-25T07:15:45.950Z,1.20
2022-08-25T07:18:18.007Z,1.02
2022-08-25T07:21:08.957Z,1.23
2022-08-25T07:31:20.870Z,1.00
2022-08-25T07:38:34.214Z,1.10
2022-08-25T07:41:57.386Z,1.15
2022-08-25T07:56:12.521Z,1.30
2022-08-25T08:02:20.465Z,1.02
2022-08-25T08:16:15.105Z,1.10
2022-08-25T08:19:33.663Z,1.13
2022-08-25T08:26:20.688Z,1.08
2022-08-25T08:33:16.506Z,1.17
2022-08-25T08:35:54.043Z,1.00
2022-08-25T08:46:03.148Z,1.00
2022-08-25T09:00:00.635Z,0.82
2022-08-25T09:11:11.005Z,1.00
2022-08-25T09:36:45.335Z,0.98
2022-08-25T10:04:18.865Z,0.98
2022-08-25T10:10:59.990Z,0.80
2022-08-25T11:25:36.471Z,0.90
2022-08-25T11:28:22.632Z,1.10
2022-08-25T11:30:50.355Z,1.00
2022-08-25T11:33:17.615Z,1.00
2022-08-25T11:35:57.182Z,1.38
2022-08-25T11:38:43.639Z,1.02
2022-08-25T11:41:23.833Z,1.20
2022-08-25T11:44:15.928Z,1.02
2022-08-25T11:46:48.282Z,1.10
2022-08-25T11:49:42.415Z,1.10
2022-08-25T11:52:35.643Z,1.00
2022-08-25T11:55:25.708Z,1.08
2022-08-25T11:57:53.987Z,1.00
2022-08-25T12:00:37.096Z,0.90
2022-08-25T12:03:31.815Z,1.00
2022-08-25T12:06:17.193Z,1.08
2022-08-25T12:09:00.590Z,0.90
2022-08-25T12:11:43.753Z,1.17
2022-08-25T12:14:22.559Z,1.15
2022-08-25T12:16:56.181Z,1.00
2022-08-25T12:19:34.968Z,1.00
2022-08-25T12:22:03.663Z,1.00
2022-08-25T12:24:47.959Z,1.10
2022-08-25T12:27:40.204Z,1.05
2022-08-25T12:30:28.966Z,1.00
2022-08-25T12:33:06.718Z,1.10
2022-08-25T12:35:56.823Z,0.88
2022-08-25T12:38:32.715Z,0.90
2022-08-25T12:41:09.046Z,1.10
2022-08-25T12:43:45.999Z,0.90
2022-08-25T12:50:55.425Z,0.73
2022-08-25T13:01:48.068Z,1.23
2022-08-25T13:04:55.642Z,1.00
2022-08-25T13:11:55.061Z,1.00
2022-08-25T13:14:37.927Z,1.00
2022-08-25T13:27:26.724Z,1.00
2022-08-25T13:30:22.076Z,1.00
2022-08-25T13:33:39.551Z,0.90
2022-08-25T13:36:58.707Z,1.10
2022-08-25T13:50:39.212Z,1.00
2022-08-25T13:53:14.808Z,0.98
2022-08-25T13:55:51.039Z,0.93
2022-08-25T13:58:24.317Z,1.08
2022-08-25T14:01:22.927Z,1.00
2022-08-25T14:04:27.211Z,0.90
2022-08-25T14:07:14.304Z,1.20
2022-08-25T14:09:45.350Z,1.10
2022-08-25T14:12:33.066Z,1.17
2022-08-25T14:15:02.188Z,1.25
2022-08-25T14:17:38.187Z,1.23
2022-08-25T14:20:28.957Z,1.20
2022-08-25T14:23:02.170Z,0.90
2022-08-25T14:25:28.939Z,1.30
2022-08-25T14:28:07.518Z,0.98
2022-08-25T14:30:51.919Z,1.00
2022-08-25T14:33:19.739Z,0.90
2022-08-25T14:35:50.469Z,0.93
2022-08-25T14:38:17.859Z,0.98
2022-08-25T14:40:44.619Z,0.80
2022-08-25T14:43:12.130Z,1.10
2022-08-25T14:45:41.520Z,1.20
2022-08-25T14:48:10.449Z,1.23
2022-08-25T14:50:37.461Z,1.20
2022-08-25T14:53:08.007Z,1.13
2022-08-25T14:55:34.916Z,1.10
2022-08-25T14:58:02.182Z,0.93
2022-08-25T15:00:29.101Z,1.00
2022-08-25T15:02:55.757Z,1.10
2022-08-25T15:05:26.969Z,0.80
2022-08-25T15:08:13.612Z,0.90
2022-08-25T15:10:40.543Z,1.10
2022-08-25T15:13:07.237Z,1.30
2022-08-25T15:15:34.937Z,1.20
2022-08-25T15:18:01.632Z,1.00
2022-08-25T15:20:28.325Z,1.30
2022-08-25T15:22:55.821Z,1.20
2022-08-25T15:25:22.776Z,1.40
2022-08-25T15:27:51.111Z,1.08
2022-08-25T15:30:17.842Z,1.17
2022-08-25T15:32:45.166Z,1.20
2022-08-25T15:35:15.489Z,1.10
2022-08-25T15:37:42.205Z,1.00
2022-08-25T15:40:09.368Z,1.00
2022-08-25T15:42:37.840Z,1.00
2022-08-25T15:45:10.360Z,1.13
2022-08-25T15:47:37.159Z,1.10
2022-08-25T15:50:14.174Z,1.30
2022-08-25T15:52:48.715Z,1.10
2022-08-25T15:55:16.340Z,1.17
2022-08-25T15:57:43.045Z,0.80
2022-08-25T16:00:13.653Z,1.17
2022-08-25T16:02:43.486Z,1.20
2022-08-25T16:05:12.280Z,1.33
2022-08-25T16:07:40.201Z,1.02
2022-08-25T16:10:07.913Z,1.10
2022-08-25T16:12:34.602Z,1.10
2022-08-25T16:15:01.657Z,1.10
2022-08-25T16:17:28.312Z,0.93
2022-08-25T16:19:54.950Z,1.23
2022-08-25T16:22:21.626Z,1.08
2022-08-25T16:24:49.013Z,1.10
2022-08-25T16:27:16.031Z,1.00
2022-08-25T16:29:43.805Z,1.08
2022-08-25T16:32:12.108Z,1.40
2022-08-25T16:34:40.603Z,1.25
2022-08-25T16:37:07.296Z,1.00
2022-08-25T16:39:34.083Z,1.10
2022-08-25T16:42:00.725Z,1.10
2022-08-25T16:44:27.831Z,1.30
2022-08-25T16:46:55.231Z,1.10
2022-08-25T16:49:24.456Z,1.48
2022-08-25T16:51:52.223Z,1.42
2022-08-25T16:54:43.485Z,1.38
2022-08-25T16:57:10.743Z,1.30
2022-08-25T16:59:37.382Z,1.40
2022-08-25T17:02:04.234Z,1.10
2022-08-25T17:04:32.154Z,1.50
2022-08-25T17:06:59.423Z,1.20
2022-08-25T17:09:26.068Z,1.17
2022-08-25T17:11:56.618Z,1.00
2022-08-25T17:14:23.420Z,1.13
2022-08-25T17:16:54.457Z,1.00
2022-08-25T17:19:21.290Z,1.15
2022-08-25T17:21:50.617Z,1.20
2022-08-25T17:24:17.661Z,0.90
2022-08-25T17:26:46.293Z,1.20
2022-08-25T17:29:12.927Z,1.10
2022-08-25T17:31:40.198Z,1.10
2022-08-25T17:34:12.041Z,1.17
2022-08-25T17:36:39.813Z,1.33
2022-08-25T17:39:07.652Z,1.15
2022-08-25T17:41:34.357Z,1.10
2022-08-25T17:44:04.602Z,1.17
2022-08-25T17:46:31.357Z,1.00
2022-08-25T17:48:58.116Z,1.02
2022-08-25T17:51:25.174Z,0.98
2022-08-25T17:53:52.754Z,1.05
2022-08-25T17:56:20.983Z,1.15
2022-08-25T17:58:47.656Z,1.20
2022-08-25T18:01:19.234Z,1.00
2022-08-25T18:03:46.307Z,1.30
2022-08-25T18:06:15.119Z,0.88
2022-08-25T18:08:43.083Z,1.10
2022-08-25T18:11:09.831Z,1.10
2022-08-25T18:13:37.550Z,0.93
2022-08-25T18:16:04.888Z,1.27
2022-08-25T18:18:34.285Z,1.13
2022-08-25T18:21:01.811Z,1.05
2022-08-25T18:23:28.637Z,1.30
2022-08-25T18:26:00.899Z,1.10
2022-08-25T18:28:28.766Z,1.02
2022-08-25T18:30:55.784Z,1.23
2022-08-25T18:33:22.974Z,1.10
2022-08-25T18:35:49.625Z,1.20
2022-08-25T18:38:34.727Z,1.30
2022-08-25T18:41:05.503Z,1.35
2022-08-25T18:43:33.919Z,1.45
2022-08-25T18:46:04.292Z,1.25
2022-08-25T18:48:34.408Z,1.20
2022-08-25T18:51:04.830Z,1.30
2022-08-25T18:53:37.113Z,1.10
2022-08-25T18:56:12.635Z,1.20
2022-08-25T18:58:42.974Z,1.35
2022-08-25T19:01:16.117Z,1.23
2022-08-25T19:03:45.635Z,1.30
2022-08-25T19:06:20.087Z,1.58
2022-08-25T19:08:54.813Z,1.30
2022-08-25T19:11:26.688Z,1.45
2022-08-25T19:14:19.729Z,1.25
2022-08-25T19:17:01.063Z,1.30
2022-08-25T19:19:32.869Z,1.33
2022-08-25T19:22:16.590Z,1.33
2022-08-25T19:25:13.166Z,1.40
2022-08-25T19:27:47.074Z,1.30
2022-08-25T19:30:18.605Z,1.73
2022-08-25T19:32:56.676Z,1.45
2022-08-25T19:35:37.912Z,1.40
2022-08-25T19:38:33.812Z,1.40
2022-08-25T19:41:10.518Z,1.63
2022-08-25T19:43:55.062Z,1.35
2022-08-25T19:46:32.613Z,1.40
2022-08-25T19:49:08.376Z,1.77
2022-08-25T19:51:43.891Z,1.50
2022-08-25T20:00:37.195Z,1.50
2022-08-25T20:09:39.273Z,1.80
2022-08-25T20:24:39.435Z,1.63
2022-08-25T20:30:12.835Z,1.50
2022-08-25T20:32:44.589Z,1.50
2022-08-25T20:35:17.983Z,1.85
2022-08-25T20:37:49.994Z,1.70
2022-08-25T20:40:25.872Z,1.90
2022-08-25T20:42:57.141Z,1.67
2022-08-25T20:45:31.354Z,1.77
2022-08-25T20:48:02.274Z,1.60
2022-08-25T20:50:36.823Z,1.83
2022-08-25T20:53:10.320Z,1.67
2022-08-25T20:55:47.094Z,1.60
2022-08-25T20:58:16.932Z,1.85
2022-08-25T21:00:48.787Z,1.75
2022-08-25T21:06:50.071Z,1.73
2022-08-25T21:09:31.541Z,1.70
2022-08-25T21:26:58.392Z,1.80
2022-08-25T21:29:58.990Z,1.73
2022-08-25T22:06:03.449Z,2.30
2022-08-25T22:08:44.954Z,2.45
2022-08-25T22:15:08.326Z,2.40
2022-08-25T22:17:44.066Z,2.90
2022-08-25T22:20:16.270Z,3.20
2022-08-25T22:22:44.411Z,2.63
2022-08-25T22:25:14.021Z,3.30
2022-08-25T22:27:44.444Z,3.63
2022-08-25T22:37:48.445Z,3.35
2022-08-25T22:50:15.001Z,4.35
2022-08-25T22:53:19.855Z,3.92
2022-08-25T22:56:19.653Z,4.15
2022-08-25T23:00:02.513Z,5.10
2022-08-25T23:06:45.929Z,4.78
2022-08-25T23:09:17.634Z,4.70
2022-08-25T23:11:48.831Z,4.75
2022-08-25T23:40:34.352Z,7.47
2022-08-25T23:43:13.149Z,9.30
2022-08-25T23:48:41.009Z,9.43
2022-08-25T23:51:48.676Z,10.30
